sensor_id;sensor_type;location;lat;lon;timestamp;temperature;humidity
15095;DHT22;7648;52.264;9.632;2023-03-01T00:03:24;-1.80;99.90
15095;DHT22;7648;52.264;9.632;2023-03-01T00:07:26;-1.80;99.90
15095;DHT22;7648;52.264;9.632;2023-03-01T00:11:31;-1.80;99.90
15095;DHT22;7648;52.264;9.632;2023-03-01T00:15:37;-1.80;99.90
15095;DHT22;7648;52.264;9.632;2023-03-01T00:19:39;-1.90;99.90
15095;DHT22;7648;52.264;9.632;2023-03-01T00:23:41;-1.90;99.90
15095;DHT22;7648;52.264;9.632;2023-03-01T00:27:44;-1.90;99.90
15095;DHT22;7648;52.264;9.632;2023-03-01T00:31:49;-1.90;99.90
15095;DHT22;7648;52.264;9.632;2023-03-01T00:35:51;-2.00;99.90
15095;DHT22;7648;52.264;9.632;2023-03-01T00:39:53;-2.00;99.90
15095;DHT22;7648;52.264;9.632;2023-03-01T00:43:57;-2.00;99.90
15095;DHT22;7648;52.264;9.632;2023-03-01T00:47:59;-2.10;99.90
15095;DHT22;7648;52.264;9.632;2023-03-01T00:52:01;-2.10;99.90
15095;DHT22;7648;52.264;9.632;2023-03-01T00:56:04;-2.10;99.90
15095;DHT22;7648;52.264;9.632;2023-03-01T01:00:09;-2.10;99.90
15095;DHT22;7648;52.264;9.632;2023-03-01T01:04:13;-2.20;99.90
15095;DHT22;7648;52.264;9.632;2023-03-01T01:08:15;-2.20;99.90
15095;DHT22;7648;52.264;9.632;2023-03-01T01:12:16;-2.20;99.90
15095;DHT22;7648;52.264;9.632;2023-03-01T01:16:21;-2.20;99.90
15095;DHT22;7648;52.264;9.632;2023-03-01T01:20:23;-2.30;99.90
15095;DHT22;7648;52.264;9.632;2023-03-01T01:24:25;-2.30;99.90
15095;DHT22;7648;52.264;9.632;2023-03-01T01:28:27;-2.30;99.90
15095;DHT22;7648;52.264;9.632;2023-03-01T01:32:30;-2.30;99.90
15095;DHT22;7648;52.264;9.632;2023-03-01T01:36:32;-2.30;99.90
15095;DHT22;7648;52.264;9.632;2023-03-01T01:40:34;-2.40;99.90
15095;DHT22;7648;52.264;9.632;2023-03-01T01:44:36;-2.40;99.90
15095;DHT22;7648;52.264;9.632;2023-03-01T01:48:42;-2.40;99.90
15095;DHT22;7648;52.264;9.632;2023-03-01T01:52:45;-2.40;99.90
15095;DHT22;7648;52.264;9.632;2023-03-01T01:56:51;-2.40;99.90
15095;DHT22;7648;52.264;9.632;2023-03-01T02:00:54;-2.40;99.90
15095;DHT22;7648;52.264;9.632;2023-03-01T02:05:02;-2.40;99.90
15095;DHT22;7648;52.264;9.632;2023-03-01T02:09:08;-2.40;99.90
15095;DHT22;7648;52.264;9.632;2023-03-01T02:13:12;-2.50;99.90
15095;DHT22;7648;52.264;9.632;2023-03-01T02:17:17;-2.60;99.90
15095;DHT22;7648;52.264;9.632;2023-03-01T02:21:33;-2.50;99.90
15095;DHT22;7648;52.264;9.632;2023-03-01T02:25:44;-2.60;99.90
15095;DHT22;7648;52.264;9.632;2023-03-01T02:29:49;-2.80;99.90
15095;DHT22;7648;52.264;9.632;2023-03-01T02:33:51;-2.80;99.90
15095;DHT22;7648;52.264;9.632;2023-03-01T02:37:54;-2.70;99.90
15095;DHT22;7648;52.264;9.632;2023-03-01T02:42:02;-2.70;99.90
15095;DHT22;7648;52.264;9.632;2023-03-01T02:46:08;-2.70;99.90
15095;DHT22;7648;52.264;9.632;2023-03-01T02:50:22;-2.70;99.90
15095;DHT22;7648;52.264;9.632;2023-03-01T02:54:29;-2.70;99.90
15095;DHT22;7648;52.264;9.632;2023-03-01T02:58:34;-2.70;99.90
15095;DHT22;7648;52.264;9.632;2023-03-01T03:02:48;-2.70;99.90
15095;DHT22;7648;52.264;9.632;2023-03-01T03:06:52;-2.80;99.90
15095;DHT22;7648;52.264;9.632;2023-03-01T03:10:54;-2.80;99.90
15095;DHT22;7648;52.264;9.632;2023-03-01T03:14:56;-2.90;99.90
15095;DHT22;7648;52.264;9.632;2023-03-01T03:18:59;-3.10;99.90
15095;DHT22;7648;52.264;9.632;2023-03-01T03:23:05;-3.10;99.90
15095;DHT22;7648;52.264;9.632;2023-03-01T03:27:08;-3.20;99.90
15095;DHT22;7648;52.264;9.632;2023-03-01T03:31:10;-3.10;99.90
15095;DHT22;7648;52.264;9.632;2023-03-01T03:35:13;-3.10;99.90
15095;DHT22;7648;52.264;9.632;2023-03-01T03:39:15;-3.00;99.90
15095;DHT22;7648;52.264;9.632;2023-03-01T03:43:19;-3.00;99.90
15095;DHT22;7648;52.264;9.632;2023-03-01T03:47:21;-3.00;99.90
15095;DHT22;7648;52.264;9.632;2023-03-01T03:51:24;-3.00;99.90
15095;DHT22;7648;52.264;9.632;2023-03-01T03:55:26;-2.90;99.90
15095;DHT22;7648;52.264;9.632;2023-03-01T03:59:31;-2.90;99.90
15095;DHT22;7648;52.264;9.632;2023-03-01T04:03:33;-3.00;99.90
15095;DHT22;7648;52.264;9.632;2023-03-01T04:07:38;-3.10;99.90
15095;DHT22;7648;52.264;9.632;2023-03-01T04:11:40;-3.10;99.90
15095;DHT22;7648;52.264;9.632;2023-03-01T04:15:43;-3.00;99.90
15095;DHT22;7648;52.264;9.632;2023-03-01T04:19:44;-3.10;99.90
15095;DHT22;7648;52.264;9.632;2023-03-01T04:23:50;-3.10;99.90
15095;DHT22;7648;52.264;9.632;2023-03-01T04:27:53;-3.10;99.90
15095;DHT22;7648;52.264;9.632;2023-03-01T04:31:55;-3.00;99.90
15095;DHT22;7648;52.264;9.632;2023-03-01T04:35:57;-3.00;99.90
15095;DHT22;7648;52.264;9.632;2023-03-01T04:40:00;-2.90;99.90
15095;DHT22;7648;52.264;9.632;2023-03-01T04:44:09;-3.00;99.90
15095;DHT22;7648;52.264;9.632;2023-03-01T04:48:11;-3.00;99.90
15095;DHT22;7648;52.264;9.632;2023-03-01T04:52:13;-3.00;99.90
15095;DHT22;7648;52.264;9.632;2023-03-01T04:56:16;-3.10;99.90
15095;DHT22;7648;52.264;9.632;2023-03-01T05:00:19;-3.10;99.90
15095;DHT22;7648;52.264;9.632;2023-03-01T05:04:22;-3.10;99.90
15095;DHT22;7648;52.264;9.632;2023-03-01T05:08:23;-3.10;99.90
15095;DHT22;7648;52.264;9.632;2023-03-01T05:12:27;-3.10;99.90
15095;DHT22;7648;52.264;9.632;2023-03-01T05:16:28;-3.20;99.90
15095;DHT22;7648;52.264;9.632;2023-03-01T05:20:31;-3.30;99.90
15095;DHT22;7648;52.264;9.632;2023-03-01T05:24:37;-3.30;99.90
15095;DHT22;7648;52.264;9.632;2023-03-01T05:28:40;-3.30;99.90
15095;DHT22;7648;52.264;9.632;2023-03-01T05:32:44;-3.30;99.90
15095;DHT22;7648;52.264;9.632;2023-03-01T05:36:46;-3.30;99.90
15095;DHT22;7648;52.264;9.632;2023-03-01T05:40:48;-3.20;99.90
15095;DHT22;7648;52.264;9.632;2023-03-01T05:44:52;-3.20;99.90
15095;DHT22;7648;52.264;9.632;2023-03-01T05:48:53;-3.30;99.90
15095;DHT22;7648;52.264;9.632;2023-03-01T05:53:00;-3.30;99.90
15095;DHT22;7648;52.264;9.632;2023-03-01T05:57:02;-3.30;99.90
15095;DHT22;7648;52.264;9.632;2023-03-01T06:01:10;-3.40;99.90
15095;DHT22;7648;52.264;9.632;2023-03-01T06:05:12;-3.40;99.90
15095;DHT22;7648;52.264;9.632;2023-03-01T06:09:14;-3.50;99.90
15095;DHT22;7648;52.264;9.632;2023-03-01T06:13:16;-3.50;99.90
15095;DHT22;7648;52.264;9.632;2023-03-01T06:17:20;-3.40;99.90
15095;DHT22;7648;52.264;9.632;2023-03-01T06:21:22;-3.40;99.90
15095;DHT22;7648;52.264;9.632;2023-03-01T06:25:25;-3.30;99.90
15095;DHT22;7648;52.264;9.632;2023-03-01T06:29:27;-3.30;99.90
15095;DHT22;7648;52.264;9.632;2023-03-01T06:33:31;-3.30;99.90
15095;DHT22;7648;52.264;9.632;2023-03-01T06:37:33;-3.30;99.90
15095;DHT22;7648;52.264;9.632;2023-03-01T06:41:35;-3.30;99.90
15095;DHT22;7648;52.264;9.632;2023-03-01T06:45:37;-3.30;99.90
15095;DHT22;7648;52.264;9.632;2023-03-01T06:49:40;-3.30;99.90
15095;DHT22;7648;52.264;9.632;2023-03-01T06:53:42;-3.20;99.90
15095;DHT22;7648;52.264;9.632;2023-03-01T06:57:44;-3.20;99.90
15095;DHT22;7648;52.264;9.632;2023-03-01T07:01:46;-3.10;99.90
15095;DHT22;7648;52.264;9.632;2023-03-01T07:05:50;-3.10;99.90
15095;DHT22;7648;52.264;9.632;2023-03-01T07:09:53;-3.00;99.90
15095;DHT22;7648;52.264;9.632;2023-03-01T07:13:54;-2.90;99.90
15095;DHT22;7648;52.264;9.632;2023-03-01T07:17:56;-2.80;99.90
15095;DHT22;7648;52.264;9.632;2023-03-01T07:22:00;-2.70;99.90
15095;DHT22;7648;52.264;9.632;2023-03-01T07:26:02;-2.70;99.90
15095;DHT22;7648;52.264;9.632;2023-03-01T07:30:05;-2.60;99.90
15095;DHT22;7648;52.264;9.632;2023-03-01T07:34:07;-2.50;99.90
15095;DHT22;7648;52.264;9.632;2023-03-01T07:38:10;-2.40;99.90
15095;DHT22;7648;52.264;9.632;2023-03-01T07:42:12;-2.30;99.90
15095;DHT22;7648;52.264;9.632;2023-03-01T07:46:14;-2.30;99.90
15095;DHT22;7648;52.264;9.632;2023-03-01T07:50:16;-2.10;99.90
15095;DHT22;7648;52.264;9.632;2023-03-01T07:54:19;-2.10;99.90
15095;DHT22;7648;52.264;9.632;2023-03-01T07:58:21;-2.00;99.90
15095;DHT22;7648;52.264;9.632;2023-03-01T08:02:23;-1.90;99.90
15095;DHT22;7648;52.264;9.632;2023-03-01T08:06:25;-1.90;99.90
15095;DHT22;7648;52.264;9.632;2023-03-01T08:10:28;-1.70;99.90
15095;DHT22;7648;52.264;9.632;2023-03-01T08:14:30;-1.70;99.90
15095;DHT22;7648;52.264;9.632;2023-03-01T08:18:32;-1.60;99.90
15095;DHT22;7648;52.264;9.632;2023-03-01T08:22:34;-1.50;99.90
15095;DHT22;7648;52.264;9.632;2023-03-01T08:26:37;-1.40;99.90
15095;DHT22;7648;52.264;9.632;2023-03-01T08:30:39;-1.30;99.90
15095;DHT22;7648;52.264;9.632;2023-03-01T08:34:41;-1.10;99.90
15095;DHT22;7648;52.264;9.632;2023-03-01T08:38:43;-1.00;99.90
15095;DHT22;7648;52.264;9.632;2023-03-01T08:42:46;-1.00;99.90
15095;DHT22;7648;52.264;9.632;2023-03-01T08:46:48;-0.80;99.90
15095;DHT22;7648;52.264;9.632;2023-03-01T08:50:52;-0.70;99.90
15095;DHT22;7648;52.264;9.632;2023-03-01T08:54:54;-0.60;99.90
15095;DHT22;7648;52.264;9.632;2023-03-01T08:58:57;-0.50;99.90
15095;DHT22;7648;52.264;9.632;2023-03-01T09:02:59;-0.50;99.90
15095;DHT22;7648;52.264;9.632;2023-03-01T09:07:01;-0.40;99.90
15095;DHT22;7648;52.264;9.632;2023-03-01T09:11:04;-0.30;99.90
15095;DHT22;7648;52.264;9.632;2023-03-01T09:15:08;-0.20;99.90
15095;DHT22;7648;52.264;9.632;2023-03-01T09:19:11;-0.10;99.90
15095;DHT22;7648;52.264;9.632;2023-03-01T09:23:12;0.00;99.90
15095;DHT22;7648;52.264;9.632;2023-03-01T09:27:14;0.10;99.90
15095;DHT22;7648;52.264;9.632;2023-03-01T09:31:21;0.10;99.90
15095;DHT22;7648;52.264;9.632;2023-03-01T09:35:24;0.20;99.90
15095;DHT22;7648;52.264;9.632;2023-03-01T09:39:26;0.40;99.90
15095;DHT22;7648;52.264;9.632;2023-03-01T09:43:33;0.40;99.90
15095;DHT22;7648;52.264;9.632;2023-03-01T09:47:40;0.50;99.90
15095;DHT22;7648;52.264;9.632;2023-03-01T09:51:50;0.60;99.90
15095;DHT22;7648;52.264;9.632;2023-03-01T09:56:00;0.70;99.90
15095;DHT22;7648;52.264;9.632;2023-03-01T10:04:44;0.90;99.90
15095;DHT22;7648;52.264;9.632;2023-03-01T10:08:52;1.20;99.90
15095;DHT22;7648;52.264;9.632;2023-03-01T10:12:56;1.60;99.90
15095;DHT22;7648;52.264;9.632;2023-03-01T10:17:01;1.90;99.90
15095;DHT22;7648;52.264;9.632;2023-03-01T10:21:13;2.20;99.90
15095;DHT22;7648;52.264;9.632;2023-03-01T10:25:18;2.50;99.90
15095;DHT22;7648;52.264;9.632;2023-03-01T10:29:24;2.90;99.90
15095;DHT22;7648;52.264;9.632;2023-03-01T10:33:32;3.20;99.90
15095;DHT22;7648;52.264;9.632;2023-03-01T10:37:35;3.50;99.90
15095;DHT22;7648;52.264;9.632;2023-03-01T10:42:01;4.20;99.90
15095;DHT22;7648;52.264;9.632;2023-03-01T10:46:22;4.30;99.90
15095;DHT22;7648;52.264;9.632;2023-03-01T10:50:24;4.00;99.90
15095;DHT22;7648;52.264;9.632;2023-03-01T10:54:29;3.80;99.90
15095;DHT22;7648;52.264;9.632;2023-03-01T10:58:33;3.90;99.90
15095;DHT22;7648;52.264;9.632;2023-03-01T11:02:35;4.30;99.90
15095;DHT22;7648;52.264;9.632;2023-03-01T11:06:39;4.90;99.90
15095;DHT22;7648;52.264;9.632;2023-03-01T11:10:42;5.40;99.90
15095;DHT22;7648;52.264;9.632;2023-03-01T11:14:47;5.80;99.90
15095;DHT22;7648;52.264;9.632;2023-03-01T11:18:56;6.20;99.90
15095;DHT22;7648;52.264;9.632;2023-03-01T11:23:02;6.70;99.90
15095;DHT22;7648;52.264;9.632;2023-03-01T11:27:14;7.40;99.90
15095;DHT22;7648;52.264;9.632;2023-03-01T11:31:17;8.60;99.90
15095;DHT22;7648;52.264;9.632;2023-03-01T11:35:23;9.00;99.90
15095;DHT22;7648;52.264;9.632;2023-03-01T11:39:31;8.70;99.90
15095;DHT22;7648;52.264;9.632;2023-03-01T11:43:46;8.10;99.90
15095;DHT22;7648;52.264;9.632;2023-03-01T11:48:00;7.90;99.90
15095;DHT22;7648;52.264;9.632;2023-03-01T11:52:12;7.70;99.90
15095;DHT22;7648;52.264;9.632;2023-03-01T11:56:27;7.80;99.90
15095;DHT22;7648;52.264;9.632;2023-03-01T12:05:46;7.80;99.90
15095;DHT22;7648;52.264;9.632;2023-03-01T12:10:04;7.80;99.90
15095;DHT22;7648;52.264;9.632;2023-03-01T12:14:28;7.80;99.90
15095;DHT22;7648;52.264;9.632;2023-03-01T12:19:01;7.90;99.90
15095;DHT22;7648;52.264;9.632;2023-03-01T12:23:34;7.90;99.90
15095;DHT22;7648;52.264;9.632;2023-03-01T12:28:19;7.80;99.90
15095;DHT22;7648;52.264;9.632;2023-03-01T12:32:42;7.70;99.90
15095;DHT22;7648;52.264;9.632;2023-03-01T12:37:11;7.50;99.90
15095;DHT22;7648;52.264;9.632;2023-03-01T12:46:10;7.40;99.90
15095;DHT22;7648;52.264;9.632;2023-03-01T12:50:16;7.40;99.90
15095;DHT22;7648;52.264;9.632;2023-03-01T12:54:26;7.30;99.90
15095;DHT22;7648;52.264;9.632;2023-03-01T12:58:32;7.20;99.90
15095;DHT22;7648;52.264;9.632;2023-03-01T13:02:38;7.30;99.90
15095;DHT22;7648;52.264;9.632;2023-03-01T13:06:50;7.30;99.90
15095;DHT22;7648;52.264;9.632;2023-03-01T13:10:59;7.40;99.90
15095;DHT22;7648;52.264;9.632;2023-03-01T13:15:03;7.30;99.90
15095;DHT22;7648;52.264;9.632;2023-03-01T13:19:14;7.20;99.90
15095;DHT22;7648;52.264;9.632;2023-03-01T13:23:25;7.20;99.90
15095;DHT22;7648;52.264;9.632;2023-03-01T13:27:29;7.10;99.90
15095;DHT22;7648;52.264;9.632;2023-03-01T13:31:56;7.10;99.90
15095;DHT22;7648;52.264;9.632;2023-03-01T13:35:58;7.10;99.90
15095;DHT22;7648;52.264;9.632;2023-03-01T13:44:28;7.20;99.90
15095;DHT22;7648;52.264;9.632;2023-03-01T13:48:31;7.20;99.90
15095;DHT22;7648;52.264;9.632;2023-03-01T13:52:40;7.20;99.90
15095;DHT22;7648;52.264;9.632;2023-03-01T13:56:43;7.10;99.90
15095;DHT22;7648;52.264;9.632;2023-03-01T14:00:47;7.00;99.90
15095;DHT22;7648;52.264;9.632;2023-03-01T14:04:56;6.80;99.90
15095;DHT22;7648;52.264;9.632;2023-03-01T14:09:04;6.80;99.90
15095;DHT22;7648;52.264;9.632;2023-03-01T14:13:18;6.80;99.90
15095;DHT22;7648;52.264;9.632;2023-03-01T14:22:04;7.00;99.90
15095;DHT22;7648;52.264;9.632;2023-03-01T14:26:09;7.00;99.90
15095;DHT22;7648;52.264;9.632;2023-03-01T14:30:15;7.10;99.90
15095;DHT22;7648;52.264;9.632;2023-03-01T14:34:22;7.20;99.90
15095;DHT22;7648;52.264;9.632;2023-03-01T14:38:33;7.40;99.90
15095;DHT22;7648;52.264;9.632;2023-03-01T14:42:36;7.50;99.90
15095;DHT22;7648;52.264;9.632;2023-03-01T14:46:40;7.60;99.90
15095;DHT22;7648;52.264;9.632;2023-03-01T14:50:44;7.70;99.90
15095;DHT22;7648;52.264;9.632;2023-03-01T14:54:49;7.70;99.90
15095;DHT22;7648;52.264;9.632;2023-03-01T14:58:52;7.80;99.90
15095;DHT22;7648;52.264;9.632;2023-03-01T15:03:07;7.80;99.90
15095;DHT22;7648;52.264;9.632;2023-03-01T15:07:12;7.90;99.90
15095;DHT22;7648;52.264;9.632;2023-03-01T15:11:21;7.80;99.90
15095;DHT22;7648;52.264;9.632;2023-03-01T15:15:36;7.80;99.90
15095;DHT22;7648;52.264;9.632;2023-03-01T15:19:39;7.80;99.90
15095;DHT22;7648;52.264;9.632;2023-03-01T15:23:47;8.00;99.90
15095;DHT22;7648;52.264;9.632;2023-03-01T15:27:52;8.20;99.90
15095;DHT22;7648;52.264;9.632;2023-03-01T15:31:56;8.40;99.90
15095;DHT22;7648;52.264;9.632;2023-03-01T15:35:59;8.60;99.90
15095;DHT22;7648;52.264;9.632;2023-03-01T15:40:02;8.90;99.90
15095;DHT22;7648;52.264;9.632;2023-03-01T15:44:18;9.10;99.90
15095;DHT22;7648;52.264;9.632;2023-03-01T15:48:20;9.30;99.90
15095;DHT22;7648;52.264;9.632;2023-03-01T15:52:24;9.40;99.90
15095;DHT22;7648;52.264;9.632;2023-03-01T15:56:29;9.40;99.90
15095;DHT22;7648;52.264;9.632;2023-03-01T16:00:32;9.20;99.90
15095;DHT22;7648;52.264;9.632;2023-03-01T16:04:34;8.70;99.90
15095;DHT22;7648;52.264;9.632;2023-03-01T16:08:36;8.10;99.90
15095;DHT22;7648;52.264;9.632;2023-03-01T16:12:38;7.50;99.90
15095;DHT22;7648;52.264;9.632;2023-03-01T16:16:42;7.20;99.90
15095;DHT22;7648;52.264;9.632;2023-03-01T16:20:44;7.00;99.90
15095;DHT22;7648;52.264;9.632;2023-03-01T16:24:47;6.70;99.90
15095;DHT22;7648;52.264;9.632;2023-03-01T16:28:49;6.50;99.90
15095;DHT22;7648;52.264;9.632;2023-03-01T16:32:52;6.30;99.90
15095;DHT22;7648;52.264;9.632;2023-03-01T16:36:54;6.10;99.90
15095;DHT22;7648;52.264;9.632;2023-03-01T16:40:56;5.90;99.90
15095;DHT22;7648;52.264;9.632;2023-03-01T16:44:58;5.80;99.90
15095;DHT22;7648;52.264;9.632;2023-03-01T16:49:02;5.60;99.90
15095;DHT22;7648;52.264;9.632;2023-03-01T16:53:04;5.40;99.90
15095;DHT22;7648;52.264;9.632;2023-03-01T16:57:06;5.20;99.90
15095;DHT22;7648;52.264;9.632;2023-03-01T17:01:11;5.00;99.90
15095;DHT22;7648;52.264;9.632;2023-03-01T17:05:14;4.90;99.90
15095;DHT22;7648;52.264;9.632;2023-03-01T17:09:16;4.60;99.90
15095;DHT22;7648;52.264;9.632;2023-03-01T17:13:18;4.50;99.90
15095;DHT22;7648;52.264;9.632;2023-03-01T17:17:20;4.30;99.90
15095;DHT22;7648;52.264;9.632;2023-03-01T17:21:24;4.10;99.90
15095;DHT22;7648;52.264;9.632;2023-03-01T17:25:26;3.90;99.90
15095;DHT22;7648;52.264;9.632;2023-03-01T17:29:28;3.70;99.90
15095;DHT22;7648;52.264;9.632;2023-03-01T17:33:30;3.50;99.90
15095;DHT22;7648;52.264;9.632;2023-03-01T17:37:33;3.30;99.90
15095;DHT22;7648;52.264;9.632;2023-03-01T17:41:36;3.20;99.90
15095;DHT22;7648;52.264;9.632;2023-03-01T17:45:39;3.00;99.90
15095;DHT22;7648;52.264;9.632;2023-03-01T17:49:43;2.90;99.90
15095;DHT22;7648;52.264;9.632;2023-03-01T17:53:47;2.70;99.90
15095;DHT22;7648;52.264;9.632;2023-03-01T17:57:49;2.70;99.90
15095;DHT22;7648;52.264;9.632;2023-03-01T18:01:51;2.60;99.90
15095;DHT22;7648;52.264;9.632;2023-03-01T18:05:53;2.50;99.90
15095;DHT22;7648;52.264;9.632;2023-03-01T18:09:57;2.50;99.90
15095;DHT22;7648;52.264;9.632;2023-03-01T18:13:58;2.40;99.90
15095;DHT22;7648;52.264;9.632;2023-03-01T18:18:00;2.10;99.90
15095;DHT22;7648;52.264;9.632;2023-03-01T18:22:02;2.00;99.90
15095;DHT22;7648;52.264;9.632;2023-03-01T18:26:08;1.90;99.90
15095;DHT22;7648;52.264;9.632;2023-03-01T18:30:11;1.90;99.90
15095;DHT22;7648;52.264;9.632;2023-03-01T18:34:13;1.80;99.90
15095;DHT22;7648;52.264;9.632;2023-03-01T18:38:15;1.60;99.90
15095;DHT22;7648;52.264;9.632;2023-03-01T18:42:19;1.60;99.90
15095;DHT22;7648;52.264;9.632;2023-03-01T18:46:21;1.50;99.90
15095;DHT22;7648;52.264;9.632;2023-03-01T18:50:23;1.40;99.90
15095;DHT22;7648;52.264;9.632;2023-03-01T18:54:25;1.30;99.90
15095;DHT22;7648;52.264;9.632;2023-03-01T18:58:28;1.30;99.90
15095;DHT22;7648;52.264;9.632;2023-03-01T19:02:30;1.20;99.90
15095;DHT22;7648;52.264;9.632;2023-03-01T19:06:32;1.10;99.90
15095;DHT22;7648;52.264;9.632;2023-03-01T19:10:34;1.00;99.90
15095;DHT22;7648;52.264;9.632;2023-03-01T19:14:38;0.90;99.90
15095;DHT22;7648;52.264;9.632;2023-03-01T19:18:41;0.80;99.90
15095;DHT22;7648;52.264;9.632;2023-03-01T19:22:44;0.80;99.90
15095;DHT22;7648;52.264;9.632;2023-03-01T19:26:47;0.80;99.90
15095;DHT22;7648;52.264;9.632;2023-03-01T19:30:50;0.70;99.90
15095;DHT22;7648;52.264;9.632;2023-03-01T19:34:52;0.70;99.90
15095;DHT22;7648;52.264;9.632;2023-03-01T19:38:56;0.70;99.90
15095;DHT22;7648;52.264;9.632;2023-03-01T19:42:58;0.70;99.90
15095;DHT22;7648;52.264;9.632;2023-03-01T19:47:01;0.60;99.90
15095;DHT22;7648;52.264;9.632;2023-03-01T19:51:04;0.60;99.90
15095;DHT22;7648;52.264;9.632;2023-03-01T19:55:07;0.50;99.90
15095;DHT22;7648;52.264;9.632;2023-03-01T19:59:09;0.40;99.90
15095;DHT22;7648;52.264;9.632;2023-03-01T20:03:13;0.30;99.90
15095;DHT22;7648;52.264;9.632;2023-03-01T20:07:15;0.30;99.90
15095;DHT22;7648;52.264;9.632;2023-03-01T20:11:19;0.20;99.90
15095;DHT22;7648;52.264;9.632;2023-03-01T20:15:21;0.10;99.90
15095;DHT22;7648;52.264;9.632;2023-03-01T20:19:25;0.10;99.90
15095;DHT22;7648;52.264;9.632;2023-03-01T20:23:28;0.10;99.90
15095;DHT22;7648;52.264;9.632;2023-03-01T20:27:30;0.00;99.90
15095;DHT22;7648;52.264;9.632;2023-03-01T20:31:32;0.00;99.90
15095;DHT22;7648;52.264;9.632;2023-03-01T20:35:35;0.10;99.90
15095;DHT22;7648;52.264;9.632;2023-03-01T20:39:37;0.00;99.90
15095;DHT22;7648;52.264;9.632;2023-03-01T20:43:40;0.00;99.90
15095;DHT22;7648;52.264;9.632;2023-03-01T20:47:43;0.10;99.90
15095;DHT22;7648;52.264;9.632;2023-03-01T20:51:46;0.10;99.90
15095;DHT22;7648;52.264;9.632;2023-03-01T20:55:48;0.00;99.90
15095;DHT22;7648;52.264;9.632;2023-03-01T20:59:50;-0.10;99.90
15095;DHT22;7648;52.264;9.632;2023-03-01T21:03:52;-0.10;99.90
15095;DHT22;7648;52.264;9.632;2023-03-01T21:07:56;-0.20;99.90
15095;DHT22;7648;52.264;9.632;2023-03-01T21:12:02;-0.20;99.90
15095;DHT22;7648;52.264;9.632;2023-03-01T21:16:06;-0.20;99.90
15095;DHT22;7648;52.264;9.632;2023-03-01T21:20:10;-0.20;99.90
15095;DHT22;7648;52.264;9.632;2023-03-01T21:24:14;-0.30;99.90
15095;DHT22;7648;52.264;9.632;2023-03-01T21:28:16;-0.30;99.90
15095;DHT22;7648;52.264;9.632;2023-03-01T21:32:18;-0.30;99.90
15095;DHT22;7648;52.264;9.632;2023-03-01T21:36:21;-0.40;99.90
15095;DHT22;7648;52.264;9.632;2023-03-01T21:40:25;-0.40;99.90
15095;DHT22;7648;52.264;9.632;2023-03-01T21:44:28;-0.40;99.90
15095;DHT22;7648;52.264;9.632;2023-03-01T21:48:31;-0.40;99.90
15095;DHT22;7648;52.264;9.632;2023-03-01T21:52:33;-0.40;99.90
15095;DHT22;7648;52.264;9.632;2023-03-01T21:56:37;-0.50;99.90
15095;DHT22;7648;52.264;9.632;2023-03-01T22:00:39;-0.50;99.90
15095;DHT22;7648;52.264;9.632;2023-03-01T22:04:41;-0.50;99.90
15095;DHT22;7648;52.264;9.632;2023-03-01T22:08:44;-0.60;99.90
15095;DHT22;7648;52.264;9.632;2023-03-01T22:12:48;-0.60;99.90
15095;DHT22;7648;52.264;9.632;2023-03-01T22:16:50;-0.60;99.90
15095;DHT22;7648;52.264;9.632;2023-03-01T22:20:52;-0.70;99.90
15095;DHT22;7648;52.264;9.632;2023-03-01T22:24:54;-0.80;99.90
15095;DHT22;7648;52.264;9.632;2023-03-01T22:29:00;-0.90;99.90
15095;DHT22;7648;52.264;9.632;2023-03-01T22:33:02;-1.00;99.90
15095;DHT22;7648;52.264;9.632;2023-03-01T22:37:04;-1.00;99.90
15095;DHT22;7648;52.264;9.632;2023-03-01T22:41:05;-1.00;99.90
15095;DHT22;7648;52.264;9.632;2023-03-01T22:45:10;-1.00;99.90
15095;DHT22;7648;52.264;9.632;2023-03-01T22:49:12;-1.10;99.90
15095;DHT22;7648;52.264;9.632;2023-03-01T22:53:14;-1.10;99.90
15095;DHT22;7648;52.264;9.632;2023-03-01T22:57:16;-1.10;99.90
15095;DHT22;7648;52.264;9.632;2023-03-01T23:01:21;-1.00;99.90
15095;DHT22;7648;52.264;9.632;2023-03-01T23:05:23;-1.00;99.90
15095;DHT22;7648;52.264;9.632;2023-03-01T23:09:27;-1.00;99.90
15095;DHT22;7648;52.264;9.632;2023-03-01T23:13:30;-1.00;99.90
15095;DHT22;7648;52.264;9.632;2023-03-01T23:17:33;-1.10;99.90
15095;DHT22;7648;52.264;9.632;2023-03-01T23:21:35;-1.10;99.90
15095;DHT22;7648;52.264;9.632;2023-03-01T23:25:37;-1.10;99.90
15095;DHT22;7648;52.264;9.632;2023-03-01T23:29:39;-1.20;99.90
15095;DHT22;7648;52.264;9.632;2023-03-01T23:33:44;-1.20;99.90
15095;DHT22;7648;52.264;9.632;2023-03-01T23:37:46;-1.30;99.90
15095;DHT22;7648;52.264;9.632;2023-03-01T23:41:48;-1.30;99.90
15095;DHT22;7648;52.264;9.632;2023-03-01T23:45:52;-1.20;99.90
15095;DHT22;7648;52.264;9.632;2023-03-01T23:49:55;-1.20;99.90
15095;DHT22;7648;52.264;9.632;2023-03-01T23:54:00;-1.30;99.90
15095;DHT22;7648;52.264;9.632;2023-03-01T23:58:04;-1.40;99.90
